createdAt,value
2018-12-06T00:00:43.459Z,5.65
2018-12-06T00:03:11.764Z,5.69
2018-12-06T00:05:40.447Z,5.71
2018-12-06T00:08:16.217Z,5.69
2018-12-06T00:10:45.259Z,5.85
2018-12-06T00:13:13.578Z,5.62
2018-12-06T00:15:41.851Z,5.59
2018-12-06T00:18:10.149Z,5.27
2018-12-06T00:20:38.534Z,5.64
2018-12-06T00:23:06.893Z,5.88
2018-12-06T00:25:35.759Z,5.90
2018-12-06T00:28:04.121Z,5.92
2018-12-06T00:30:38.461Z,5.99
2018-12-06T00:33:06.774Z,5.92
2018-12-06T00:35:35.079Z,5.81
2018-12-06T00:38:03.377Z,5.85
2018-12-06T00:40:33.304Z,6.09
2018-12-06T00:43:01.626Z,6.10
2018-12-06T00:45:30.337Z,6.13
2018-12-06T00:47:58.623Z,5.78
2018-12-06T00:50:26.952Z,5.72
2018-12-06T00:52:55.289Z,5.54
2018-12-06T00:55:23.615Z,5.53
2018-12-06T00:57:51.892Z,5.45
2018-12-06T01:00:20.358Z,5.57
2018-12-06T01:02:48.650Z,5.44
2018-12-06T01:05:17.014Z,5.49
2018-12-06T01:07:45.530Z,5.41
2018-12-06T01:10:14.386Z,5.47
2018-12-06T01:12:42.723Z,5.61
2018-12-06T01:15:11.112Z,5.55
2018-12-06T01:17:39.469Z,5.73
2018-12-06T01:20:08.065Z,5.70
2018-12-06T01:22:36.390Z,5.79
2018-12-06T01:25:05.579Z,5.78
2018-12-06T01:27:33.881Z,5.86
2018-12-06T01:30:03.031Z,5.71
2018-12-06T01:32:31.313Z,5.65
2018-12-06T01:34:59.856Z,5.40
2018-12-06T01:37:28.158Z,5.45
2018-12-06T01:39:56.449Z,5.35
2018-12-06T01:42:24.773Z,5.56
2018-12-06T01:44:53.090Z,5.63
2018-12-06T01:47:21.402Z,5.62
2018-12-06T01:49:49.705Z,5.28
2018-12-06T01:52:18.153Z,5.43
2018-12-06T01:54:46.445Z,5.61
2018-12-06T01:57:14.745Z,5.57
2018-12-06T01:59:43.064Z,5.32
2018-12-06T02:02:11.349Z,5.39
2018-12-06T02:04:39.646Z,5.59
2018-12-06T02:07:08.031Z,5.56
2018-12-06T02:09:36.333Z,5.45
2018-12-06T02:12:04.697Z,5.57
2018-12-06T02:14:33.185Z,5.66
2018-12-06T02:17:01.498Z,5.86
2018-12-06T02:19:29.798Z,5.86
2018-12-06T02:21:58.145Z,5.97
2018-12-06T02:24:26.487Z,5.86
2018-12-06T02:26:54.769Z,5.80
2018-12-06T02:29:23.117Z,5.59
2018-12-06T02:31:51.538Z,5.58
2018-12-06T02:34:19.838Z,5.50
2018-12-06T02:36:48.214Z,5.59
2018-12-06T02:39:16.525Z,5.87
2018-12-06T02:41:45.501Z,5.99
2018-12-06T02:44:13.839Z,6.06
2018-12-06T02:46:42.121Z,6.12
2018-12-06T02:49:10.429Z,6.09
2018-12-06T02:51:38.763Z,6.20
2018-12-06T02:54:07.036Z,6.16
2018-12-06T02:56:35.489Z,5.87
2018-12-06T02:59:04.580Z,5.72
2018-12-06T03:01:32.878Z,5.63
2018-12-06T03:04:01.157Z,5.67
2018-12-06T03:06:29.489Z,5.54
2018-12-06T03:08:57.785Z,5.66
2018-12-06T03:11:26.324Z,5.78
2018-12-06T03:13:54.638Z,5.96
2018-12-06T03:16:22.962Z,5.99
2018-12-06T03:18:51.284Z,5.91
2018-12-06T03:21:20.038Z,5.99
2018-12-06T03:23:48.342Z,6.09
2018-12-06T03:26:16.652Z,5.80
2018-12-06T03:28:44.973Z,5.87
2018-12-06T03:31:13.364Z,5.98
2018-12-06T03:33:42.160Z,6.20
2018-12-06T03:36:10.508Z,6.02
2018-12-06T03:38:38.779Z,6.04
2018-12-06T03:41:07.116Z,6.08
2018-12-06T03:43:35.551Z,6.19
2018-12-06T03:46:03.860Z,6.16
2018-12-06T03:48:32.243Z,6.10
2018-12-06T03:51:00.780Z,6.12
2018-12-06T03:53:29.080Z,6.19
2018-12-06T03:55:57.564Z,6.17
2018-12-06T03:58:25.929Z,6.10
2018-12-06T04:00:54.227Z,6.33
2018-12-06T04:03:22.500Z,6.23
2018-12-06T04:05:51.251Z,6.13
2018-12-06T04:08:19.557Z,6.29
2018-12-06T04:10:47.856Z,6.24
2018-12-06T04:13:16.212Z,6.37
2018-12-06T04:15:44.513Z,6.34
2018-12-06T04:18:12.832Z,6.46
2018-12-06T04:20:41.170Z,6.40
2018-12-06T04:23:09.463Z,6.08
2018-12-06T04:25:37.809Z,6.12
2018-12-06T04:28:06.648Z,6.06
2018-12-06T04:30:35.040Z,6.23
2018-12-06T04:33:03.352Z,6.20
2018-12-06T04:35:31.670Z,6.05
2018-12-06T04:37:59.989Z,6.31
2018-12-06T04:40:28.289Z,6.40
2018-12-06T04:42:56.610Z,6.37
2018-12-06T04:45:24.910Z,6.68
2018-12-06T04:47:53.181Z,6.48
2018-12-06T04:50:21.862Z,6.48
2018-12-06T04:52:50.148Z,6.50
2018-12-06T04:55:18.458Z,6.35
2018-12-06T04:57:46.902Z,6.27
2018-12-06T05:00:15.252Z,6.45
2018-12-06T05:02:43.696Z,6.60
2018-12-06T05:05:12.104Z,6.60
2018-12-06T05:07:40.409Z,6.74
2018-12-06T05:10:08.775Z,6.76
2018-12-06T05:12:37.619Z,6.59
2018-12-06T05:15:05.995Z,6.72
2018-12-06T05:17:35.623Z,6.66
2018-12-06T05:20:04.817Z,6.40
2018-12-06T05:22:33.163Z,6.50
2018-12-06T05:25:01.516Z,6.49
2018-12-06T05:27:29.862Z,6.46
2018-12-06T05:29:58.147Z,6.40
2018-12-06T05:32:26.424Z,6.62
2018-12-06T05:34:54.803Z,6.77
2018-12-06T05:37:23.109Z,6.78
2018-12-06T05:39:52.114Z,6.97
2018-12-06T05:42:20.473Z,6.86
2018-12-06T05:44:51.907Z,7.08
2018-12-06T05:47:20.342Z,6.94
2018-12-06T05:49:48.680Z,6.95
2018-12-06T05:52:16.978Z,7.10
2018-12-06T05:54:45.402Z,6.95
2018-12-06T05:57:13.803Z,6.95
2018-12-06T05:59:42.194Z,6.78
2018-12-06T06:02:10.534Z,6.56
2018-12-06T06:04:38.899Z,6.59
2018-12-06T06:07:07.293Z,6.76
2018-12-06T06:09:35.609Z,6.92
2018-12-06T06:12:03.995Z,6.75
2018-12-06T06:14:32.314Z,6.48
2018-12-06T06:17:00.662Z,6.47
2018-12-06T06:19:29.258Z,6.36
2018-12-06T06:21:57.552Z,6.32
2018-12-06T06:24:25.825Z,6.28
2018-12-06T06:26:54.149Z,6.26
2018-12-06T06:29:22.438Z,6.15
2018-12-06T06:31:50.754Z,6.33
2018-12-06T06:34:19.088Z,6.23
2018-12-06T06:36:47.420Z,6.18
2018-12-06T06:39:15.729Z,6.49
2018-12-06T06:41:44.095Z,6.35
2018-12-06T06:44:12.389Z,6.51
2018-12-06T06:46:40.703Z,6.74
2018-12-06T06:49:13.713Z,6.59
2018-12-06T06:51:39.404Z,6.84
2018-12-06T06:54:07.710Z,6.81
2018-12-06T06:56:36.038Z,6.99
2018-12-06T06:59:04.365Z,6.90
2018-12-06T07:01:32.700Z,6.94
2018-12-06T07:04:01.144Z,7.04
2018-12-06T07:06:29.423Z,7.35
2018-12-06T07:08:57.738Z,7.40
2018-12-06T07:11:26.071Z,7.60
2018-12-06T07:13:54.365Z,7.61
2018-12-06T07:16:22.726Z,7.76
2018-12-06T07:18:51.143Z,7.56
2018-12-06T07:21:20.152Z,7.47
2018-12-06T07:23:48.542Z,7.60
2018-12-06T07:26:17.196Z,7.41
2018-12-06T07:28:45.517Z,7.55
2018-12-06T07:31:13.846Z,7.60
2018-12-06T07:33:42.199Z,7.80
2018-12-06T07:36:10.523Z,7.98
2018-12-06T07:38:38.813Z,7.95
2018-12-06T07:41:07.742Z,7.69
2018-12-06T07:43:36.051Z,7.73
2018-12-06T07:46:08.732Z,7.59
2018-12-06T07:48:39.551Z,7.52
2018-12-06T07:51:08.408Z,7.64
2018-12-06T07:53:37.525Z,7.74
2018-12-06T07:56:06.637Z,7.62
2018-12-06T07:58:34.937Z,7.76
2018-12-06T08:01:03.331Z,7.63
2018-12-06T08:03:34.786Z,7.67
2018-12-06T08:06:03.140Z,7.82
2018-12-06T08:08:31.816Z,7.87
2018-12-06T08:11:00.130Z,7.87
2018-12-06T08:13:28.472Z,8.04
2018-12-06T08:15:56.821Z,7.97
2018-12-06T08:18:25.236Z,8.05
2018-12-06T08:20:53.541Z,7.93
2018-12-06T08:23:21.880Z,7.87
2018-12-06T08:25:50.189Z,7.87
2018-12-06T08:28:18.509Z,7.91
2018-12-06T08:30:47.066Z,7.89
2018-12-06T08:33:15.366Z,7.99
2018-12-06T08:35:43.704Z,7.95
2018-12-06T08:38:12.410Z,7.94
2018-12-06T08:40:41.757Z,7.93
2018-12-06T08:43:10.058Z,7.96
2018-12-06T08:45:38.442Z,7.91
2018-12-06T08:48:06.758Z,7.95
2018-12-06T08:50:35.241Z,7.93
2018-12-06T08:53:03.981Z,7.94
2018-12-06T08:55:32.257Z,7.78
2018-12-06T08:58:00.573Z,7.88
2018-12-06T09:00:28.928Z,7.60
2018-12-06T09:02:57.227Z,7.71
2018-12-06T09:05:25.557Z,7.74
2018-12-06T09:07:53.933Z,7.82
2018-12-06T09:10:22.286Z,7.83
2018-12-06T09:12:50.623Z,7.86
2018-12-06T09:15:20.094Z,7.61
2018-12-06T09:17:48.370Z,7.78
2018-12-06T09:20:16.705Z,8.17
2018-12-06T09:22:45.030Z,8.41
2018-12-06T09:25:20.820Z,8.29
2018-12-06T09:27:43.662Z,8.36
2018-12-06T09:30:12.111Z,8.31
2018-12-06T09:32:40.466Z,8.23
2018-12-06T09:35:08.775Z,8.15
2018-12-06T09:37:37.459Z,8.30
2018-12-06T09:40:06.261Z,8.27
2018-12-06T09:42:35.325Z,8.29
2018-12-06T09:45:04.401Z,8.54
2018-12-06T09:47:32.714Z,8.70
2018-12-06T09:50:01.016Z,8.74
2018-12-06T09:52:29.349Z,8.80
2018-12-06T09:54:57.637Z,9.04
2018-12-06T09:57:25.963Z,9.08
2018-12-06T09:59:54.355Z,9.15
2018-12-06T10:02:22.665Z,8.97
2018-12-06T10:04:50.982Z,8.98
2018-12-06T10:07:19.291Z,9.04
2018-12-06T10:09:47.563Z,9.18
2018-12-06T10:12:15.943Z,9.33
2018-12-06T10:14:44.353Z,9.21
2018-12-06T10:17:12.677Z,9.45
2018-12-06T10:19:40.979Z,9.57
2018-12-06T10:22:09.691Z,9.61
2018-12-06T10:24:37.979Z,9.73
2018-12-06T10:27:06.425Z,9.25
2018-12-06T10:29:34.737Z,9.33
2018-12-06T10:32:03.039Z,9.39
2018-12-06T10:34:31.353Z,9.46
2018-12-06T10:36:59.673Z,9.09
2018-12-06T10:39:27.969Z,9.25
2018-12-06T10:41:56.312Z,9.30
2018-12-06T10:44:29.688Z,9.36
2018-12-06T10:46:58.030Z,9.47
2018-12-06T10:49:26.353Z,9.36
2018-12-06T10:51:54.716Z,9.13
2018-12-06T10:54:23.128Z,9.28
2018-12-06T10:56:52.384Z,9.37
2018-12-06T10:59:20.711Z,9.73
2018-12-06T11:01:50.941Z,9.65
2018-12-06T11:04:19.644Z,9.65
2018-12-06T11:06:48.150Z,9.75
2018-12-06T11:09:16.465Z,9.84
2018-12-06T11:11:44.928Z,9.85
2018-12-06T11:14:13.251Z,9.81
2018-12-06T11:16:41.709Z,10.01
2018-12-06T11:19:10.034Z,9.99
2018-12-06T11:21:38.331Z,9.98
2018-12-06T11:24:06.670Z,9.94
2018-12-06T11:27:06.718Z,10.08
2018-12-06T11:29:34.992Z,9.90
2018-12-06T11:32:03.355Z,9.87
2018-12-06T11:34:31.700Z,10.08
2018-12-06T11:37:00.022Z,10.06
2018-12-06T11:39:28.398Z,9.98
2018-12-06T11:41:56.750Z,9.98
2018-12-06T11:44:25.141Z,10.06
2018-12-06T11:46:54.016Z,10.22
2018-12-06T11:49:22.847Z,10.22
2018-12-06T11:51:51.718Z,10.03
2018-12-06T11:54:20.010Z,9.93
2018-12-06T11:56:48.545Z,9.76
2018-12-06T11:59:16.876Z,10.01
2018-12-06T12:01:45.204Z,10.11
2018-12-06T12:04:13.533Z,10.00
2018-12-06T12:06:41.837Z,10.19
2018-12-06T12:09:10.183Z,10.49
2018-12-06T12:11:38.679Z,10.41
2018-12-06T12:14:08.148Z,10.26
2018-12-06T12:16:36.463Z,10.31
2018-12-06T12:19:04.945Z,10.49
2018-12-06T12:21:33.369Z,10.56
2018-12-06T12:24:01.680Z,10.75
2018-12-06T12:26:30.036Z,10.77
2018-12-06T12:28:59.071Z,10.80
2018-12-06T12:31:27.370Z,10.63
2018-12-06T12:33:55.776Z,10.65
2018-12-06T12:36:24.165Z,10.45
2018-12-06T12:38:52.741Z,10.30
2018-12-06T12:41:21.135Z,10.42
2018-12-06T12:43:49.426Z,10.46
2018-12-06T12:46:17.721Z,10.61
2018-12-06T12:48:46.040Z,10.57
2018-12-06T12:51:14.377Z,10.80
2018-12-06T12:53:42.888Z,10.72
2018-12-06T12:56:11.304Z,10.45
2018-12-06T12:58:39.578Z,10.54
2018-12-06T13:01:07.853Z,10.57
2018-12-06T13:03:36.345Z,10.64
2018-12-06T13:06:04.740Z,10.74
2018-12-06T13:08:33.114Z,10.86
2018-12-06T13:11:01.437Z,10.72
2018-12-06T13:13:29.755Z,10.61
2018-12-06T13:15:58.047Z,10.68
2018-12-06T13:18:26.979Z,10.61
2018-12-06T13:20:55.314Z,10.61
2018-12-06T13:23:23.662Z,10.65
2018-12-06T13:25:52.013Z,10.79
2018-12-06T13:28:21.105Z,10.83
2018-12-06T13:30:49.618Z,10.59
2018-12-06T13:33:17.931Z,10.61
2018-12-06T13:35:46.452Z,10.65
2018-12-06T13:38:15.138Z,10.59
2018-12-06T13:40:43.593Z,10.59
2018-12-06T13:43:11.920Z,10.60
2018-12-06T13:45:40.214Z,10.77
2018-12-06T13:48:08.542Z,10.56
2018-12-06T13:50:36.841Z,10.56
2018-12-06T13:53:05.241Z,10.65
2018-12-06T13:55:33.843Z,10.77
2018-12-06T13:58:02.212Z,10.75
2018-12-06T14:00:30.614Z,10.71
2018-12-06T14:02:59.614Z,10.92
2018-12-06T14:05:27.906Z,10.98
2018-12-06T14:07:56.216Z,10.85
2018-12-06T14:10:24.572Z,10.80
2018-12-06T14:12:52.904Z,10.94
2018-12-06T14:15:22.023Z,11.03
2018-12-06T14:17:50.350Z,10.92
2018-12-06T14:20:18.661Z,10.89
2018-12-06T14:22:47.017Z,10.86
2018-12-06T14:25:15.578Z,10.77
2018-12-06T14:27:43.933Z,11.11
2018-12-06T14:30:12.268Z,11.17
2018-12-06T14:32:40.673Z,10.91
2018-12-06T14:35:09.223Z,11.11
2018-12-06T14:37:37.541Z,11.08
2018-12-06T14:40:07.046Z,11.22
2018-12-06T14:42:35.352Z,11.14
2018-12-06T14:45:04.729Z,11.16
2018-12-06T14:47:33.563Z,11.12
2018-12-06T14:50:02.006Z,11.17
2018-12-06T14:52:30.573Z,11.13
2018-12-06T14:54:59.162Z,11.15
2018-12-06T14:57:27.531Z,11.00
2018-12-06T14:59:55.877Z,11.08
2018-12-06T15:02:24.229Z,11.18
2018-12-06T15:04:52.577Z,11.27
2018-12-06T15:07:20.920Z,11.18
2018-12-06T15:09:49.708Z,11.14
2018-12-06T15:12:17.993Z,11.36
2018-12-06T15:14:46.335Z,11.41
2018-12-06T15:17:14.669Z,11.31
2018-12-06T15:19:42.950Z,11.45
2018-12-06T15:22:11.278Z,11.52
2018-12-06T15:24:39.624Z,11.42
2018-12-06T15:27:07.933Z,11.58
2018-12-06T15:29:36.255Z,11.68
2018-12-06T15:32:04.998Z,11.66
2018-12-06T15:34:33.282Z,11.84
2018-12-06T15:37:01.583Z,12.04
2018-12-06T15:39:29.955Z,12.02
2018-12-06T15:41:58.254Z,12.02
2018-12-06T15:44:26.576Z,12.23
2018-12-06T15:46:54.933Z,12.14
2018-12-06T15:49:23.233Z,12.14
2018-12-06T15:51:51.687Z,12.22
2018-12-06T15:54:20.093Z,12.36
2018-12-06T15:56:48.411Z,12.24
2018-12-06T15:59:16.761Z,12.27
2018-12-06T16:01:45.144Z,12.22
2018-12-06T16:04:13.443Z,12.44
2018-12-06T16:06:41.731Z,12.33
2018-12-06T16:09:10.049Z,12.28
2018-12-06T16:11:38.348Z,12.27
2018-12-06T16:14:06.687Z,12.26
2018-12-06T16:16:35.272Z,11.99
2018-12-06T16:19:03.582Z,12.09
2018-12-06T16:21:32.023Z,12.13
2018-12-06T16:24:00.350Z,12.36
2018-12-06T16:26:28.648Z,12.54
2018-12-06T16:28:56.964Z,12.75
2018-12-06T16:31:25.332Z,12.55
2018-12-06T16:33:53.683Z,12.61
2018-12-06T16:36:22.008Z,12.54
2018-12-06T16:38:51.147Z,12.54
2018-12-06T16:41:20.644Z,12.77
2018-12-06T16:43:49.478Z,12.69
2018-12-06T16:46:17.837Z,12.85
2018-12-06T16:48:46.176Z,12.73
2018-12-06T16:51:14.502Z,12.53
2018-12-06T16:53:42.838Z,12.56
2018-12-06T16:56:11.210Z,12.59
2018-12-06T16:58:39.532Z,12.68
2018-12-06T17:01:07.925Z,12.53
2018-12-06T17:03:36.235Z,12.74
2018-12-06T17:06:06.374Z,12.69
2018-12-06T17:08:34.747Z,12.76
2018-12-06T17:11:03.126Z,12.72
2018-12-06T17:13:31.433Z,12.74
2018-12-06T17:15:59.770Z,12.72
2018-12-06T17:18:28.092Z,12.86
2018-12-06T17:20:56.448Z,12.74
2018-12-06T17:23:25.154Z,12.59
2018-12-06T17:25:53.460Z,12.53
2018-12-06T17:28:22.689Z,12.74
2018-12-06T17:30:51.068Z,12.83
2018-12-06T17:33:19.417Z,12.83
2018-12-06T17:35:47.771Z,12.99
2018-12-06T17:38:16.092Z,13.05
2018-12-06T17:40:44.445Z,13.09
2018-12-06T17:43:12.747Z,13.21
2018-12-06T17:45:41.482Z,13.17
2018-12-06T17:48:10.777Z,13.22
2018-12-06T17:50:39.108Z,13.22
2018-12-06T17:53:07.705Z,13.03
2018-12-06T17:55:41.831Z,13.03
2018-12-06T17:58:10.196Z,13.09
2018-12-06T18:00:38.552Z,12.78
2018-12-06T18:03:06.848Z,12.92
2018-12-06T18:05:35.543Z,12.97
2018-12-06T18:08:03.982Z,13.11
2018-12-06T18:10:32.709Z,12.84
2018-12-06T18:13:01.063Z,12.91
2018-12-06T18:15:29.422Z,12.81
2018-12-06T18:17:57.833Z,12.90
2018-12-06T18:20:26.253Z,12.78
2018-12-06T18:22:54.594Z,12.70
2018-12-06T18:25:22.934Z,12.63
2018-12-06T18:27:51.349Z,12.82
2018-12-06T18:30:19.798Z,12.83
2018-12-06T18:32:48.166Z,12.60
2018-12-06T18:35:16.507Z,12.70
2018-12-06T18:37:44.945Z,12.79
2018-12-06T18:40:13.310Z,12.63
2018-12-06T18:42:41.656Z,12.75
2018-12-06T18:45:10.102Z,12.60
2018-12-06T18:47:38.412Z,12.91
2018-12-06T18:50:08.085Z,12.81
2018-12-06T18:52:36.432Z,12.84
2018-12-06T18:55:05.602Z,12.90
2018-12-06T18:57:33.978Z,13.10
2018-12-06T19:00:02.346Z,13.02
2018-12-06T19:02:30.704Z,13.12
2018-12-06T19:04:59.084Z,13.10
2018-12-06T19:07:27.524Z,13.00
2018-12-06T19:09:55.847Z,12.91
2018-12-06T19:12:24.521Z,13.01
2018-12-06T19:14:52.889Z,13.06
2018-12-06T19:17:21.230Z,13.12
2018-12-06T19:19:49.596Z,13.08
2018-12-06T19:22:17.970Z,12.96
2018-12-06T19:24:46.290Z,12.97
2018-12-06T19:27:14.630Z,12.99
2018-12-06T19:29:43.308Z,13.16
2018-12-06T19:32:11.653Z,13.08
2018-12-06T19:34:40.324Z,12.97
2018-12-06T19:37:08.695Z,12.91
2018-12-06T19:39:37.107Z,13.04
2018-12-06T19:42:05.464Z,13.15
2018-12-06T19:44:33.850Z,13.17
2018-12-06T19:47:02.187Z,13.08
2018-12-06T19:49:30.562Z,13.18
2018-12-06T19:51:58.935Z,13.50
2018-12-06T19:54:27.383Z,13.32
2018-12-06T19:56:55.917Z,12.92
2018-12-06T19:59:24.911Z,12.95
2018-12-06T20:01:53.329Z,13.31
2018-12-06T20:04:21.821Z,13.07
2018-12-06T20:06:50.214Z,13.03
2018-12-06T20:09:18.551Z,13.34
2018-12-06T20:11:46.916Z,13.29
2018-12-06T20:14:16.157Z,13.32
2018-12-06T20:16:44.540Z,13.29
2018-12-06T20:19:13.157Z,13.49
2018-12-06T20:21:41.491Z,13.47
2018-12-06T20:24:09.822Z,13.03
2018-12-06T20:26:38.195Z,13.12
2018-12-06T20:29:06.509Z,13.07
2018-12-06T20:31:34.832Z,13.05
2018-12-06T20:34:03.210Z,13.13
2018-12-06T20:36:31.643Z,13.13
2018-12-06T20:39:00.004Z,12.99
2018-12-06T20:41:30.382Z,13.09
2018-12-06T20:43:59.281Z,13.37
2018-12-06T20:46:27.621Z,13.29
2018-12-06T20:48:55.971Z,13.30
2018-12-06T20:51:24.292Z,13.18
2018-12-06T20:53:52.628Z,13.33
2018-12-06T20:56:21.006Z,12.76
2018-12-06T20:58:49.352Z,12.80
2018-12-06T21:01:17.708Z,12.89
2018-12-06T21:03:46.195Z,12.98
2018-12-06T21:06:14.544Z,12.92
2018-12-06T21:08:42.880Z,13.10
2018-12-06T21:11:11.250Z,12.90
2018-12-06T21:13:39.543Z,12.81
2018-12-06T21:16:07.970Z,13.09
2018-12-06T21:18:36.290Z,13.11
2018-12-06T21:21:04.653Z,12.81
2018-12-06T21:23:32.992Z,12.95
2018-12-06T21:26:01.442Z,12.76
2018-12-06T21:28:29.808Z,12.84
2018-12-06T21:30:58.146Z,12.99
2018-12-06T21:33:26.475Z,12.85
2018-12-06T21:35:54.854Z,12.83
2018-12-06T21:38:23.169Z,12.79
2018-12-06T21:40:51.501Z,13.07
2018-12-06T21:43:19.833Z,13.16
2018-12-06T21:45:48.130Z,13.08
2018-12-06T21:48:16.936Z,13.04
2018-12-06T21:50:45.280Z,13.03
2018-12-06T21:53:13.598Z,12.79
2018-12-06T21:55:41.952Z,12.97
2018-12-06T21:58:10.273Z,13.06
2018-12-06T22:00:38.698Z,12.96
2018-12-06T22:03:07.092Z,12.97
2018-12-06T22:05:35.478Z,12.98
2018-12-06T22:08:03.865Z,12.97
2018-12-06T22:10:32.703Z,13.00
2018-12-06T22:13:01.048Z,13.21
2018-12-06T22:15:29.414Z,13.13
2018-12-06T22:17:57.869Z,13.04
2018-12-06T22:20:26.193Z,13.09
2018-12-06T22:22:54.544Z,13.23
2018-12-06T22:25:22.874Z,13.28
2018-12-06T22:27:51.217Z,13.29
2018-12-06T22:30:19.530Z,13.18
2018-12-06T22:32:48.577Z,13.19
2018-12-06T22:35:16.915Z,13.07
2018-12-06T22:37:45.216Z,12.91
2018-12-06T22:40:13.555Z,13.02
2018-12-06T22:42:41.905Z,13.05
2018-12-06T22:48:19.367Z,13.00
2018-12-06T22:50:47.763Z,13.23
2018-12-06T22:53:16.062Z,13.30
2018-12-06T22:55:44.474Z,13.39
2018-12-06T22:58:12.868Z,13.34
2018-12-06T23:00:44.790Z,13.47
2018-12-06T23:03:13.155Z,13.49
2018-12-06T23:05:41.612Z,13.57
2018-12-06T23:08:09.913Z,13.41
2018-12-06T23:10:39.078Z,13.46
2018-12-06T23:13:07.441Z,13.43
2018-12-06T23:15:35.748Z,13.14
2018-12-06T23:18:04.319Z,13.36
2018-12-06T23:20:32.668Z,13.33
2018-12-06T23:23:01.030Z,13.42
2018-12-06T23:25:29.353Z,13.33
2018-12-06T23:27:57.689Z,13.23
2018-12-06T23:30:26.028Z,13.45
2018-12-06T23:32:54.427Z,13.43
2018-12-06T23:35:22.767Z,13.66
2018-12-06T23:37:51.214Z,13.66
2018-12-06T23:40:19.630Z,13.55
2018-12-06T23:42:47.960Z,13.27
2018-12-06T23:45:16.241Z,13.39
2018-12-06T23:47:44.677Z,13.51
2018-12-06T23:50:12.995Z,13.44
2018-12-06T23:52:41.417Z,13.44
2018-12-06T23:55:09.873Z,13.37
2018-12-06T23:57:38.219Z,13.13
